sensor_id;sensor_type;location;lat;lon;timestamp;P1;durP1;ratioP1;P2;durP2;ratioP2
19854;SDS011;10088;47.946;2.532;2023-05-20T00:01:25;11.60;;;4.40;;
19854;SDS011;10088;47.946;2.532;2023-05-20T00:03:50;9.00;;;4.63;;
19854;SDS011;10088;47.946;2.532;2023-05-20T00:06:15;8.87;;;4.70;;
19854;SDS011;10088;47.946;2.532;2023-05-20T00:08:41;9.03;;;4.50;;
19854;SDS011;10088;47.946;2.532;2023-05-20T00:11:06;9.40;;;4.50;;
19854;SDS011;10088;47.946;2.532;2023-05-20T00:13:31;9.03;;;4.50;;
19854;SDS011;10088;47.946;2.532;2023-05-20T00:15:59;8.53;;;4.50;;
19854;SDS011;10088;47.946;2.532;2023-05-20T00:18:25;6.30;;;4.80;;
19854;SDS011;10088;47.946;2.532;2023-05-20T00:20:50;6.43;;;4.40;;
19854;SDS011;10088;47.946;2.532;2023-05-20T00:23:15;9.77;;;4.73;;
19854;SDS011;10088;47.946;2.532;2023-05-20T00:25:40;7.37;;;4.80;;
19854;SDS011;10088;47.946;2.532;2023-05-20T00:28:06;7.03;;;4.70;;
19854;SDS011;10088;47.946;2.532;2023-05-20T00:30:31;5.67;;;4.80;;
19854;SDS011;10088;47.946;2.532;2023-05-20T00:32:56;6.43;;;4.90;;
19854;SDS011;10088;47.946;2.532;2023-05-20T00:35:22;9.00;;;5.10;;
19854;SDS011;10088;47.946;2.532;2023-05-20T00:37:47;10.63;;;5.27;;
19854;SDS011;10088;47.946;2.532;2023-05-20T00:40:12;6.63;;;4.67;;
19854;SDS011;10088;47.946;2.532;2023-05-20T00:42:37;9.23;;;5.10;;
19854;SDS011;10088;47.946;2.532;2023-05-20T00:45:03;9.10;;;4.80;;
19854;SDS011;10088;47.946;2.532;2023-05-20T00:47:29;5.40;;;4.60;;
19854;SDS011;10088;47.946;2.532;2023-05-20T00:49:56;8.20;;;4.97;;
19854;SDS011;10088;47.946;2.532;2023-05-20T00:52:21;9.30;;;5.60;;
19854;SDS011;10088;47.946;2.532;2023-05-20T00:54:47;9.40;;;5.37;;
19854;SDS011;10088;47.946;2.532;2023-05-20T00:57:13;5.83;;;4.90;;
19854;SDS011;10088;47.946;2.532;2023-05-20T00:59:39;8.03;;;5.37;;
19854;SDS011;10088;47.946;2.532;2023-05-20T01:02:04;11.93;;;6.27;;
19854;SDS011;10088;47.946;2.532;2023-05-20T01:04:30;11.77;;;5.77;;
19854;SDS011;10088;47.946;2.532;2023-05-20T01:06:56;11.63;;;4.93;;
19854;SDS011;10088;47.946;2.532;2023-05-20T01:09:22;10.03;;;5.73;;
19854;SDS011;10088;47.946;2.532;2023-05-20T01:11:47;13.23;;;6.07;;
19854;SDS011;10088;47.946;2.532;2023-05-20T01:14:15;11.27;;;5.63;;
19854;SDS011;10088;47.946;2.532;2023-05-20T01:16:41;8.03;;;5.67;;
19854;SDS011;10088;47.946;2.532;2023-05-20T01:19:09;9.43;;;6.30;;
19854;SDS011;10088;47.946;2.532;2023-05-20T01:21:38;6.73;;;5.83;;
19854;SDS011;10088;47.946;2.532;2023-05-20T01:24:04;13.17;;;6.00;;
19854;SDS011;10088;47.946;2.532;2023-05-20T01:26:30;8.57;;;5.73;;
19854;SDS011;10088;47.946;2.532;2023-05-20T01:28:55;10.40;;;5.83;;
19854;SDS011;10088;47.946;2.532;2023-05-20T01:31:25;9.57;;;5.67;;
19854;SDS011;10088;47.946;2.532;2023-05-20T01:33:54;7.47;;;5.83;;
19854;SDS011;10088;47.946;2.532;2023-05-20T01:36:20;10.13;;;5.90;;
19854;SDS011;10088;47.946;2.532;2023-05-20T01:38:46;9.77;;;6.23;;
19854;SDS011;10088;47.946;2.532;2023-05-20T01:41:11;11.83;;;6.43;;
19854;SDS011;10088;47.946;2.532;2023-05-20T01:43:37;10.97;;;6.20;;
19854;SDS011;10088;47.946;2.532;2023-05-20T01:46:04;10.87;;;6.27;;
19854;SDS011;10088;47.946;2.532;2023-05-20T01:48:30;10.67;;;5.87;;
19854;SDS011;10088;47.946;2.532;2023-05-20T01:50:55;10.17;;;6.50;;
19854;SDS011;10088;47.946;2.532;2023-05-20T01:53:20;10.53;;;6.37;;
19854;SDS011;10088;47.946;2.532;2023-05-20T01:55:45;11.80;;;7.43;;
19854;SDS011;10088;47.946;2.532;2023-05-20T01:58:11;9.47;;;6.53;;
19854;SDS011;10088;47.946;2.532;2023-05-20T02:00:36;7.73;;;5.43;;
19854;SDS011;10088;47.946;2.532;2023-05-20T02:03:01;10.50;;;6.30;;
19854;SDS011;10088;47.946;2.532;2023-05-20T02:05:27;12.50;;;7.00;;
19854;SDS011;10088;47.946;2.532;2023-05-20T02:07:53;11.97;;;6.40;;
19854;SDS011;10088;47.946;2.532;2023-05-20T02:10:18;10.40;;;6.03;;
19854;SDS011;10088;47.946;2.532;2023-05-20T02:12:43;8.47;;;6.23;;
19854;SDS011;10088;47.946;2.532;2023-05-20T02:15:10;8.90;;;5.53;;
19854;SDS011;10088;47.946;2.532;2023-05-20T02:17:35;9.10;;;5.87;;
19854;SDS011;10088;47.946;2.532;2023-05-20T02:20:01;10.53;;;6.60;;
19854;SDS011;10088;47.946;2.532;2023-05-20T02:22:29;13.17;;;6.53;;
19854;SDS011;10088;47.946;2.532;2023-05-20T02:24:55;13.30;;;7.00;;
19854;SDS011;10088;47.946;2.532;2023-05-20T02:27:20;13.10;;;7.33;;
19854;SDS011;10088;47.946;2.532;2023-05-20T02:29:45;12.43;;;6.67;;
19854;SDS011;10088;47.946;2.532;2023-05-20T02:32:10;12.93;;;6.47;;
19854;SDS011;10088;47.946;2.532;2023-05-20T02:34:36;10.53;;;7.27;;
19854;SDS011;10088;47.946;2.532;2023-05-20T02:37:01;13.27;;;6.57;;
19854;SDS011;10088;47.946;2.532;2023-05-20T02:39:27;11.07;;;6.27;;
19854;SDS011;10088;47.946;2.532;2023-05-20T02:41:52;10.57;;;6.70;;
19854;SDS011;10088;47.946;2.532;2023-05-20T02:44:18;12.93;;;7.80;;
19854;SDS011;10088;47.946;2.532;2023-05-20T02:46:43;9.77;;;6.37;;
19854;SDS011;10088;47.946;2.532;2023-05-20T02:49:08;10.57;;;6.50;;
19854;SDS011;10088;47.946;2.532;2023-05-20T02:51:34;10.03;;;6.43;;
19854;SDS011;10088;47.946;2.532;2023-05-20T02:53:59;10.20;;;6.37;;
19854;SDS011;10088;47.946;2.532;2023-05-20T02:56:24;8.53;;;6.40;;
19854;SDS011;10088;47.946;2.532;2023-05-20T02:58:51;10.93;;;6.43;;
19854;SDS011;10088;47.946;2.532;2023-05-20T03:01:16;10.53;;;6.57;;
19854;SDS011;10088;47.946;2.532;2023-05-20T03:03:41;10.20;;;6.93;;
19854;SDS011;10088;47.946;2.532;2023-05-20T03:06:07;13.33;;;6.53;;
19854;SDS011;10088;47.946;2.532;2023-05-20T03:08:32;11.67;;;6.60;;
19854;SDS011;10088;47.946;2.532;2023-05-20T03:11:01;15.03;;;7.17;;
19854;SDS011;10088;47.946;2.532;2023-05-20T03:13:26;11.90;;;7.17;;
19854;SDS011;10088;47.946;2.532;2023-05-20T03:15:51;13.33;;;7.13;;
19854;SDS011;10088;47.946;2.532;2023-05-20T03:18:17;12.53;;;6.87;;
19854;SDS011;10088;47.946;2.532;2023-05-20T03:20:42;11.17;;;7.17;;
19854;SDS011;10088;47.946;2.532;2023-05-20T03:23:08;10.80;;;6.67;;
19854;SDS011;10088;47.946;2.532;2023-05-20T03:25:33;11.30;;;7.00;;
19854;SDS011;10088;47.946;2.532;2023-05-20T03:27:58;11.00;;;7.10;;
19854;SDS011;10088;47.946;2.532;2023-05-20T03:30:24;11.33;;;6.83;;
19854;SDS011;10088;47.946;2.532;2023-05-20T03:32:49;12.60;;;7.63;;
19854;SDS011;10088;47.946;2.532;2023-05-20T03:35:15;16.07;;;9.13;;
19854;SDS011;10088;47.946;2.532;2023-05-20T03:37:40;14.30;;;7.20;;
19854;SDS011;10088;47.946;2.532;2023-05-20T03:40:06;10.83;;;7.23;;
19854;SDS011;10088;47.946;2.532;2023-05-20T03:42:32;12.80;;;9.00;;
19854;SDS011;10088;47.946;2.532;2023-05-20T03:44:57;14.47;;;7.40;;
19854;SDS011;10088;47.946;2.532;2023-05-20T03:47:24;19.03;;;10.07;;
19854;SDS011;10088;47.946;2.532;2023-05-20T03:49:49;15.53;;;8.23;;
19854;SDS011;10088;47.946;2.532;2023-05-20T03:52:15;16.97;;;11.37;;
19854;SDS011;10088;47.946;2.532;2023-05-20T03:54:40;15.13;;;8.97;;
19854;SDS011;10088;47.946;2.532;2023-05-20T03:57:05;15.23;;;8.07;;
19854;SDS011;10088;47.946;2.532;2023-05-20T03:59:30;15.97;;;7.67;;
19854;SDS011;10088;47.946;2.532;2023-05-20T04:01:56;12.43;;;7.47;;
19854;SDS011;10088;47.946;2.532;2023-05-20T04:04:21;12.83;;;7.67;;
19854;SDS011;10088;47.946;2.532;2023-05-20T04:06:46;13.30;;;7.37;;
19854;SDS011;10088;47.946;2.532;2023-05-20T04:09:11;14.63;;;6.97;;
19854;SDS011;10088;47.946;2.532;2023-05-20T04:11:37;12.70;;;7.20;;
19854;SDS011;10088;47.946;2.532;2023-05-20T04:14:02;11.70;;;6.80;;
19854;SDS011;10088;47.946;2.532;2023-05-20T04:16:28;13.27;;;7.57;;
19854;SDS011;10088;47.946;2.532;2023-05-20T04:18:53;16.47;;;7.60;;
19854;SDS011;10088;47.946;2.532;2023-05-20T04:21:19;12.27;;;7.17;;
19854;SDS011;10088;47.946;2.532;2023-05-20T04:23:44;16.50;;;7.70;;
19854;SDS011;10088;47.946;2.532;2023-05-20T04:26:09;12.87;;;7.27;;
19854;SDS011;10088;47.946;2.532;2023-05-20T04:28:35;11.27;;;6.67;;
19854;SDS011;10088;47.946;2.532;2023-05-20T04:31:02;11.93;;;6.73;;
19854;SDS011;10088;47.946;2.532;2023-05-20T04:33:28;10.77;;;6.73;;
19854;SDS011;10088;47.946;2.532;2023-05-20T04:35:54;10.90;;;6.30;;
19854;SDS011;10088;47.946;2.532;2023-05-20T04:38:22;12.73;;;7.23;;
19854;SDS011;10088;47.946;2.532;2023-05-20T04:40:53;12.20;;;6.77;;
19854;SDS011;10088;47.946;2.532;2023-05-20T04:43:18;16.20;;;8.07;;
19854;SDS011;10088;47.946;2.532;2023-05-20T04:45:44;10.23;;;6.50;;
19854;SDS011;10088;47.946;2.532;2023-05-20T04:48:09;8.80;;;6.67;;
19854;SDS011;10088;47.946;2.532;2023-05-20T04:50:35;11.87;;;6.50;;
19854;SDS011;10088;47.946;2.532;2023-05-20T04:53:01;11.83;;;6.80;;
19854;SDS011;10088;47.946;2.532;2023-05-20T04:55:27;12.60;;;6.80;;
19854;SDS011;10088;47.946;2.532;2023-05-20T04:57:54;10.70;;;6.80;;
19854;SDS011;10088;47.946;2.532;2023-05-20T05:00:20;11.73;;;6.83;;
19854;SDS011;10088;47.946;2.532;2023-05-20T05:02:45;15.00;;;8.00;;
19854;SDS011;10088;47.946;2.532;2023-05-20T05:05:10;11.47;;;6.57;;
19854;SDS011;10088;47.946;2.532;2023-05-20T05:07:36;11.57;;;6.87;;
19854;SDS011;10088;47.946;2.532;2023-05-20T05:10:01;11.00;;;6.43;;
19854;SDS011;10088;47.946;2.532;2023-05-20T05:12:26;9.70;;;5.83;;
19854;SDS011;10088;47.946;2.532;2023-05-20T05:14:52;9.83;;;6.23;;
19854;SDS011;10088;47.946;2.532;2023-05-20T05:17:17;11.77;;;5.80;;
19854;SDS011;10088;47.946;2.532;2023-05-20T05:19:42;13.90;;;6.57;;
19854;SDS011;10088;47.946;2.532;2023-05-20T05:22:07;12.37;;;6.27;;
19854;SDS011;10088;47.946;2.532;2023-05-20T05:24:33;10.83;;;6.53;;
19854;SDS011;10088;47.946;2.532;2023-05-20T05:26:58;10.17;;;6.17;;
19854;SDS011;10088;47.946;2.532;2023-05-20T05:29:23;15.60;;;6.63;;
19854;SDS011;10088;47.946;2.532;2023-05-20T05:31:49;7.90;;;5.37;;
19854;SDS011;10088;47.946;2.532;2023-05-20T05:34:14;7.53;;;5.50;;
19854;SDS011;10088;47.946;2.532;2023-05-20T05:36:39;10.10;;;5.73;;
19854;SDS011;10088;47.946;2.532;2023-05-20T05:39:05;9.97;;;5.23;;
19854;SDS011;10088;47.946;2.532;2023-05-20T05:41:31;11.70;;;5.87;;
19854;SDS011;10088;47.946;2.532;2023-05-20T05:43:57;8.47;;;5.03;;
19854;SDS011;10088;47.946;2.532;2023-05-20T05:46:22;12.63;;;5.60;;
19854;SDS011;10088;47.946;2.532;2023-05-20T05:48:47;15.20;;;5.93;;
19854;SDS011;10088;47.946;2.532;2023-05-20T05:51:14;12.80;;;5.50;;
19854;SDS011;10088;47.946;2.532;2023-05-20T05:53:40;8.67;;;5.40;;
19854;SDS011;10088;47.946;2.532;2023-05-20T05:56:05;10.50;;;5.63;;
19854;SDS011;10088;47.946;2.532;2023-05-20T05:58:31;9.43;;;5.97;;
19854;SDS011;10088;47.946;2.532;2023-05-20T06:00:57;10.50;;;5.47;;
19854;SDS011;10088;47.946;2.532;2023-05-20T06:03:22;9.63;;;5.23;;
19854;SDS011;10088;47.946;2.532;2023-05-20T06:05:47;9.20;;;5.73;;
19854;SDS011;10088;47.946;2.532;2023-05-20T06:08:13;9.70;;;5.40;;
19854;SDS011;10088;47.946;2.532;2023-05-20T06:10:38;8.87;;;4.67;;
19854;SDS011;10088;47.946;2.532;2023-05-20T06:13:03;9.50;;;5.07;;
19854;SDS011;10088;47.946;2.532;2023-05-20T06:15:29;9.13;;;4.87;;
19854;SDS011;10088;47.946;2.532;2023-05-20T06:17:54;10.83;;;5.10;;
19854;SDS011;10088;47.946;2.532;2023-05-20T06:20:19;10.83;;;5.40;;
19854;SDS011;10088;47.946;2.532;2023-05-20T06:22:45;11.90;;;5.20;;
19854;SDS011;10088;47.946;2.532;2023-05-20T06:25:10;8.07;;;4.90;;
19854;SDS011;10088;47.946;2.532;2023-05-20T06:27:36;8.77;;;4.63;;
19854;SDS011;10088;47.946;2.532;2023-05-20T06:30:01;9.87;;;5.00;;
19854;SDS011;10088;47.946;2.532;2023-05-20T06:32:27;10.40;;;4.27;;
19854;SDS011;10088;47.946;2.532;2023-05-20T06:34:52;8.27;;;4.53;;
19854;SDS011;10088;47.946;2.532;2023-05-20T06:37:17;7.90;;;4.67;;
19854;SDS011;10088;47.946;2.532;2023-05-20T06:39:42;10.57;;;4.13;;
19854;SDS011;10088;47.946;2.532;2023-05-20T06:42:08;7.77;;;4.20;;
19854;SDS011;10088;47.946;2.532;2023-05-20T06:44:33;6.77;;;4.23;;
19854;SDS011;10088;47.946;2.532;2023-05-20T06:46:58;7.33;;;4.47;;
19854;SDS011;10088;47.946;2.532;2023-05-20T06:49:24;8.90;;;4.60;;
19854;SDS011;10088;47.946;2.532;2023-05-20T06:51:49;8.03;;;4.27;;
19854;SDS011;10088;47.946;2.532;2023-05-20T06:54:14;8.33;;;4.53;;
19854;SDS011;10088;47.946;2.532;2023-05-20T06:56:39;7.97;;;4.73;;
19854;SDS011;10088;47.946;2.532;2023-05-20T06:59:05;10.47;;;4.17;;
19854;SDS011;10088;47.946;2.532;2023-05-20T07:01:30;8.23;;;4.53;;
19854;SDS011;10088;47.946;2.532;2023-05-20T07:03:55;7.73;;;4.20;;
19854;SDS011;10088;47.946;2.532;2023-05-20T07:06:21;8.03;;;4.30;;
19854;SDS011;10088;47.946;2.532;2023-05-20T07:08:46;7.80;;;4.30;;
19854;SDS011;10088;47.946;2.532;2023-05-20T07:11:12;6.57;;;4.47;;
19854;SDS011;10088;47.946;2.532;2023-05-20T07:13:37;8.40;;;4.60;;
19854;SDS011;10088;47.946;2.532;2023-05-20T07:16:02;10.43;;;4.67;;
19854;SDS011;10088;47.946;2.532;2023-05-20T07:18:28;14.70;;;4.70;;
19854;SDS011;10088;47.946;2.532;2023-05-20T07:20:53;7.23;;;4.27;;
19854;SDS011;10088;47.946;2.532;2023-05-20T07:23:20;7.23;;;4.27;;
19854;SDS011;10088;47.946;2.532;2023-05-20T07:25:46;7.77;;;4.33;;
19854;SDS011;10088;47.946;2.532;2023-05-20T07:28:11;9.07;;;4.00;;
19854;SDS011;10088;47.946;2.532;2023-05-20T07:30:36;12.80;;;8.33;;
19854;SDS011;10088;47.946;2.532;2023-05-20T07:33:02;8.47;;;4.40;;
19854;SDS011;10088;47.946;2.532;2023-05-20T07:35:27;8.80;;;4.10;;
19854;SDS011;10088;47.946;2.532;2023-05-20T07:37:52;14.20;;;6.53;;
19854;SDS011;10088;47.946;2.532;2023-05-20T07:40:17;6.90;;;4.40;;
19854;SDS011;10088;47.946;2.532;2023-05-20T07:42:43;7.27;;;3.90;;
19854;SDS011;10088;47.946;2.532;2023-05-20T07:45:08;6.50;;;3.97;;
19854;SDS011;10088;47.946;2.532;2023-05-20T07:47:34;6.30;;;3.80;;
19854;SDS011;10088;47.946;2.532;2023-05-20T07:49:59;6.17;;;3.27;;
19854;SDS011;10088;47.946;2.532;2023-05-20T07:52:24;7.10;;;3.30;;
19854;SDS011;10088;47.946;2.532;2023-05-20T07:54:50;6.23;;;3.77;;
19854;SDS011;10088;47.946;2.532;2023-05-20T07:57:15;6.83;;;3.53;;
19854;SDS011;10088;47.946;2.532;2023-05-20T07:59:40;6.97;;;3.80;;
19854;SDS011;10088;47.946;2.532;2023-05-20T08:02:05;5.17;;;3.23;;
19854;SDS011;10088;47.946;2.532;2023-05-20T08:04:31;7.03;;;3.50;;
19854;SDS011;10088;47.946;2.532;2023-05-20T08:06:56;6.50;;;3.30;;
19854;SDS011;10088;47.946;2.532;2023-05-20T08:09:21;10.73;;;6.10;;
19854;SDS011;10088;47.946;2.532;2023-05-20T08:11:47;4.47;;;3.07;;
19854;SDS011;10088;47.946;2.532;2023-05-20T08:14:12;5.40;;;3.23;;
19854;SDS011;10088;47.946;2.532;2023-05-20T08:16:37;6.03;;;3.10;;
19854;SDS011;10088;47.946;2.532;2023-05-20T08:19:02;5.67;;;3.20;;
19854;SDS011;10088;47.946;2.532;2023-05-20T08:21:28;6.50;;;2.90;;
19854;SDS011;10088;47.946;2.532;2023-05-20T08:23:53;8.03;;;2.67;;
19854;SDS011;10088;47.946;2.532;2023-05-20T08:26:18;6.83;;;3.00;;
19854;SDS011;10088;47.946;2.532;2023-05-20T08:28:44;5.93;;;2.73;;
19854;SDS011;10088;47.946;2.532;2023-05-20T08:31:09;3.80;;;2.47;;
19854;SDS011;10088;47.946;2.532;2023-05-20T08:33:34;6.23;;;3.00;;
19854;SDS011;10088;47.946;2.532;2023-05-20T08:36:00;7.17;;;2.90;;
19854;SDS011;10088;47.946;2.532;2023-05-20T08:38:25;6.97;;;3.17;;
19854;SDS011;10088;47.946;2.532;2023-05-20T08:40:54;5.27;;;2.63;;
19854;SDS011;10088;47.946;2.532;2023-05-20T08:43:21;4.00;;;2.47;;
19854;SDS011;10088;47.946;2.532;2023-05-20T08:45:46;6.13;;;2.37;;
19854;SDS011;10088;47.946;2.532;2023-05-20T08:48:11;5.77;;;2.67;;
19854;SDS011;10088;47.946;2.532;2023-05-20T08:50:37;4.73;;;2.80;;
19854;SDS011;10088;47.946;2.532;2023-05-20T08:53:03;4.53;;;2.53;;
19854;SDS011;10088;47.946;2.532;2023-05-20T08:57:56;6.93;;;2.30;;
19854;SDS011;10088;47.946;2.532;2023-05-20T09:00:22;5.67;;;2.80;;
19854;SDS011;10088;47.946;2.532;2023-05-20T09:02:51;4.63;;;2.97;;
19854;SDS011;10088;47.946;2.532;2023-05-20T09:05:17;6.03;;;2.80;;
19854;SDS011;10088;47.946;2.532;2023-05-20T09:07:43;7.23;;;2.67;;
19854;SDS011;10088;47.946;2.532;2023-05-20T09:10:08;6.57;;;2.60;;
19854;SDS011;10088;47.946;2.532;2023-05-20T09:12:33;4.17;;;2.20;;
19854;SDS011;10088;47.946;2.532;2023-05-20T09:14:59;5.43;;;2.10;;
19854;SDS011;10088;47.946;2.532;2023-05-20T09:17:24;5.40;;;2.53;;
19854;SDS011;10088;47.946;2.532;2023-05-20T09:19:50;4.93;;;2.30;;
19854;SDS011;10088;47.946;2.532;2023-05-20T09:22:25;5.23;;;2.73;;
19854;SDS011;10088;47.946;2.532;2023-05-20T09:24:51;4.60;;;2.77;;
19854;SDS011;10088;47.946;2.532;2023-05-20T09:27:17;3.93;;;2.30;;
19854;SDS011;10088;47.946;2.532;2023-05-20T09:29:42;6.13;;;2.60;;
19854;SDS011;10088;47.946;2.532;2023-05-20T09:32:08;6.57;;;2.30;;
19854;SDS011;10088;47.946;2.532;2023-05-20T09:34:34;3.10;;;2.13;;
19854;SDS011;10088;47.946;2.532;2023-05-20T09:36:59;4.83;;;2.50;;
19854;SDS011;10088;47.946;2.532;2023-05-20T09:39:25;5.00;;;3.20;;
19854;SDS011;10088;47.946;2.532;2023-05-20T09:41:55;7.73;;;2.60;;
19854;SDS011;10088;47.946;2.532;2023-05-20T09:44:21;4.17;;;2.30;;
19854;SDS011;10088;47.946;2.532;2023-05-20T09:46:47;4.67;;;1.73;;
19854;SDS011;10088;47.946;2.532;2023-05-20T09:49:13;4.43;;;2.00;;
19854;SDS011;10088;47.946;2.532;2023-05-20T09:51:40;6.77;;;2.30;;
19854;SDS011;10088;47.946;2.532;2023-05-20T09:54:05;6.97;;;5.03;;
19854;SDS011;10088;47.946;2.532;2023-05-20T09:56:33;5.83;;;2.57;;
19854;SDS011;10088;47.946;2.532;2023-05-20T09:58:58;3.83;;;2.30;;
19854;SDS011;10088;47.946;2.532;2023-05-20T10:01:24;5.87;;;2.20;;
19854;SDS011;10088;47.946;2.532;2023-05-20T10:03:51;3.97;;;2.20;;
19854;SDS011;10088;47.946;2.532;2023-05-20T10:06:24;4.47;;;2.13;;
19854;SDS011;10088;47.946;2.532;2023-05-20T10:11:47;2.73;;;2.00;;
19854;SDS011;10088;47.946;2.532;2023-05-20T10:14:28;8.90;;;2.30;;
19854;SDS011;10088;47.946;2.532;2023-05-20T10:19:59;4.43;;;2.30;;
19854;SDS011;10088;47.946;2.532;2023-05-20T10:22:25;4.27;;;2.10;;
19854;SDS011;10088;47.946;2.532;2023-05-20T10:24:56;4.20;;;2.10;;
19854;SDS011;10088;47.946;2.532;2023-05-20T10:27:22;6.90;;;2.40;;
19854;SDS011;10088;47.946;2.532;2023-05-20T10:34:50;3.20;;;2.20;;
19854;SDS011;10088;47.946;2.532;2023-05-20T10:37:22;3.53;;;2.20;;
19854;SDS011;10088;47.946;2.532;2023-05-20T10:39:48;4.00;;;2.23;;
19854;SDS011;10088;47.946;2.532;2023-05-20T10:42:13;4.07;;;2.10;;
19854;SDS011;10088;47.946;2.532;2023-05-20T10:44:45;3.30;;;2.03;;
19854;SDS011;10088;47.946;2.532;2023-05-20T10:47:11;7.07;;;2.70;;
19854;SDS011;10088;47.946;2.532;2023-05-20T10:49:40;3.70;;;2.50;;
19854;SDS011;10088;47.946;2.532;2023-05-20T10:52:08;3.23;;;2.00;;
19854;SDS011;10088;47.946;2.532;2023-05-20T10:54:35;3.93;;;2.40;;
19854;SDS011;10088;47.946;2.532;2023-05-20T10:57:00;4.10;;;2.13;;
19854;SDS011;10088;47.946;2.532;2023-05-20T10:59:30;4.53;;;2.60;;
19854;SDS011;10088;47.946;2.532;2023-05-20T11:01:55;6.73;;;2.53;;
19854;SDS011;10088;47.946;2.532;2023-05-20T11:04:20;6.03;;;2.33;;
19854;SDS011;10088;47.946;2.532;2023-05-20T11:06:49;3.23;;;2.00;;
19854;SDS011;10088;47.946;2.532;2023-05-20T11:09:15;2.83;;;1.97;;
19854;SDS011;10088;47.946;2.532;2023-05-20T11:11:41;4.73;;;2.07;;
19854;SDS011;10088;47.946;2.532;2023-05-20T11:14:06;5.93;;;2.30;;
19854;SDS011;10088;47.946;2.532;2023-05-20T11:16:32;2.80;;;1.90;;
19854;SDS011;10088;47.946;2.532;2023-05-20T11:18:57;4.67;;;2.30;;
19854;SDS011;10088;47.946;2.532;2023-05-20T11:21:22;4.17;;;2.17;;
19854;SDS011;10088;47.946;2.532;2023-05-20T11:23:50;4.40;;;2.27;;
19854;SDS011;10088;47.946;2.532;2023-05-20T11:26:15;5.97;;;1.90;;
19854;SDS011;10088;47.946;2.532;2023-05-20T11:28:42;4.63;;;2.00;;
19854;SDS011;10088;47.946;2.532;2023-05-20T11:31:15;2.60;;;1.83;;
19854;SDS011;10088;47.946;2.532;2023-05-20T11:33:40;2.80;;;2.20;;
19854;SDS011;10088;47.946;2.532;2023-05-20T11:36:06;2.63;;;1.97;;
19854;SDS011;10088;47.946;2.532;2023-05-20T11:38:33;4.07;;;2.00;;
19854;SDS011;10088;47.946;2.532;2023-05-20T11:40:58;3.67;;;1.87;;
19854;SDS011;10088;47.946;2.532;2023-05-20T11:43:23;3.60;;;2.33;;
19854;SDS011;10088;47.946;2.532;2023-05-20T11:45:53;3.77;;;2.00;;
19854;SDS011;10088;47.946;2.532;2023-05-20T11:48:20;3.47;;;2.00;;
19854;SDS011;10088;47.946;2.532;2023-05-20T11:50:46;6.73;;;2.10;;
19854;SDS011;10088;47.946;2.532;2023-05-20T11:53:15;3.07;;;1.70;;
19854;SDS011;10088;47.946;2.532;2023-05-20T11:58:22;5.03;;;2.10;;
19854;SDS011;10088;47.946;2.532;2023-05-20T12:00:48;4.10;;;1.87;;
19854;SDS011;10088;47.946;2.532;2023-05-20T12:03:13;4.30;;;2.00;;
19854;SDS011;10088;47.946;2.532;2023-05-20T12:05:39;3.77;;;2.03;;
19854;SDS011;10088;47.946;2.532;2023-05-20T12:08:04;4.80;;;1.97;;
19854;SDS011;10088;47.946;2.532;2023-05-20T12:10:30;5.20;;;1.83;;
19854;SDS011;10088;47.946;2.532;2023-05-20T12:12:55;2.63;;;1.90;;
19854;SDS011;10088;47.946;2.532;2023-05-20T12:15:21;4.47;;;1.80;;
19854;SDS011;10088;47.946;2.532;2023-05-20T12:17:49;3.23;;;1.80;;
19854;SDS011;10088;47.946;2.532;2023-05-20T12:20:15;4.67;;;2.10;;
19854;SDS011;10088;47.946;2.532;2023-05-20T12:22:41;5.77;;;2.47;;
19854;SDS011;10088;47.946;2.532;2023-05-20T12:25:06;4.30;;;1.90;;
19854;SDS011;10088;47.946;2.532;2023-05-20T12:27:32;3.93;;;1.90;;
19854;SDS011;10088;47.946;2.532;2023-05-20T12:29:57;4.37;;;1.70;;
19854;SDS011;10088;47.946;2.532;2023-05-20T12:32:23;7.73;;;2.17;;
19854;SDS011;10088;47.946;2.532;2023-05-20T12:34:48;5.90;;;2.10;;
19854;SDS011;10088;47.946;2.532;2023-05-20T12:37:14;4.23;;;1.80;;
19854;SDS011;10088;47.946;2.532;2023-05-20T12:39:39;3.47;;;1.63;;
19854;SDS011;10088;47.946;2.532;2023-05-20T12:42:04;4.73;;;1.90;;
19854;SDS011;10088;47.946;2.532;2023-05-20T12:44:29;4.00;;;1.77;;
19854;SDS011;10088;47.946;2.532;2023-05-20T12:46:55;5.27;;;2.33;;
19854;SDS011;10088;47.946;2.532;2023-05-20T12:49:20;3.40;;;1.50;;
19854;SDS011;10088;47.946;2.532;2023-05-20T12:51:45;2.97;;;1.80;;
19854;SDS011;10088;47.946;2.532;2023-05-20T12:54:11;2.63;;;1.80;;
19854;SDS011;10088;47.946;2.532;2023-05-20T12:56:36;2.47;;;1.57;;
19854;SDS011;10088;47.946;2.532;2023-05-20T12:59:01;3.10;;;1.70;;
19854;SDS011;10088;47.946;2.532;2023-05-20T13:01:27;3.30;;;1.70;;
19854;SDS011;10088;47.946;2.532;2023-05-20T13:03:52;2.50;;;1.53;;
19854;SDS011;10088;47.946;2.532;2023-05-20T13:06:17;3.37;;;1.70;;
19854;SDS011;10088;47.946;2.532;2023-05-20T13:08:43;2.43;;;1.80;;
19854;SDS011;10088;47.946;2.532;2023-05-20T13:11:09;3.17;;;1.80;;
19854;SDS011;10088;47.946;2.532;2023-05-20T13:13:34;6.80;;;2.03;;
19854;SDS011;10088;47.946;2.532;2023-05-20T13:15:59;3.87;;;1.73;;
19854;SDS011;10088;47.946;2.532;2023-05-20T13:18:25;4.63;;;1.60;;
19854;SDS011;10088;47.946;2.532;2023-05-20T13:20:50;2.53;;;1.77;;
19854;SDS011;10088;47.946;2.532;2023-05-20T13:23:15;2.50;;;1.53;;
19854;SDS011;10088;47.946;2.532;2023-05-20T13:25:41;4.20;;;1.83;;
19854;SDS011;10088;47.946;2.532;2023-05-20T13:28:06;4.20;;;1.70;;
19854;SDS011;10088;47.946;2.532;2023-05-20T13:30:32;3.30;;;1.77;;
19854;SDS011;10088;47.946;2.532;2023-05-20T13:32:57;3.03;;;1.37;;
19854;SDS011;10088;47.946;2.532;2023-05-20T13:35:22;1.57;;;1.33;;
19854;SDS011;10088;47.946;2.532;2023-05-20T13:37:48;3.50;;;1.53;;
19854;SDS011;10088;47.946;2.532;2023-05-20T13:40:13;3.33;;;1.60;;
19854;SDS011;10088;47.946;2.532;2023-05-20T13:42:38;1.60;;;1.50;;
19854;SDS011;10088;47.946;2.532;2023-05-20T13:45:04;2.43;;;1.87;;
19854;SDS011;10088;47.946;2.532;2023-05-20T13:47:30;3.33;;;1.63;;
19854;SDS011;10088;47.946;2.532;2023-05-20T13:49:55;3.77;;;1.43;;
19854;SDS011;10088;47.946;2.532;2023-05-20T13:52:20;2.47;;;1.40;;
19854;SDS011;10088;47.946;2.532;2023-05-20T13:54:46;2.90;;;1.60;;
19854;SDS011;10088;47.946;2.532;2023-05-20T13:57:12;3.87;;;1.50;;
19854;SDS011;10088;47.946;2.532;2023-05-20T13:59:37;2.13;;;1.83;;
19854;SDS011;10088;47.946;2.532;2023-05-20T14:02:03;3.47;;;1.97;;
19854;SDS011;10088;47.946;2.532;2023-05-20T14:04:29;3.27;;;1.57;;
19854;SDS011;10088;47.946;2.532;2023-05-20T14:06:55;3.00;;;1.80;;
19854;SDS011;10088;47.946;2.532;2023-05-20T14:09:20;3.40;;;2.10;;
19854;SDS011;10088;47.946;2.532;2023-05-20T14:11:45;4.87;;;1.73;;
19854;SDS011;10088;47.946;2.532;2023-05-20T14:14:11;3.73;;;2.03;;
19854;SDS011;10088;47.946;2.532;2023-05-20T14:16:36;3.33;;;1.60;;
19854;SDS011;10088;47.946;2.532;2023-05-20T14:19:03;2.77;;;1.80;;
19854;SDS011;10088;47.946;2.532;2023-05-20T14:21:28;2.10;;;1.50;;
19854;SDS011;10088;47.946;2.532;2023-05-20T14:23:53;2.43;;;1.40;;
19854;SDS011;10088;47.946;2.532;2023-05-20T14:26:19;2.93;;;1.63;;
19854;SDS011;10088;47.946;2.532;2023-05-20T14:28:45;2.17;;;1.67;;
19854;SDS011;10088;47.946;2.532;2023-05-20T14:31:11;3.57;;;1.70;;
19854;SDS011;10088;47.946;2.532;2023-05-20T14:33:36;3.70;;;1.70;;
19854;SDS011;10088;47.946;2.532;2023-05-20T14:36:01;2.40;;;1.57;;
19854;SDS011;10088;47.946;2.532;2023-05-20T14:38:27;2.47;;;1.43;;
19854;SDS011;10088;47.946;2.532;2023-05-20T14:40:52;2.77;;;1.77;;
19854;SDS011;10088;47.946;2.532;2023-05-20T14:43:17;5.43;;;1.60;;
19854;SDS011;10088;47.946;2.532;2023-05-20T14:45:43;2.53;;;1.80;;
19854;SDS011;10088;47.946;2.532;2023-05-20T14:48:10;6.67;;;1.80;;
19854;SDS011;10088;47.946;2.532;2023-05-20T14:50:36;2.43;;;1.60;;